TAA876 YPDN-YPTN
Flight info
| Callsign | TAA876 |
|---|---|
| Flight time | 0h 42m |
| Altitude | 19000 |
| Route | LAKUP J251 ANGED |
| Aircraft | F27/M-SDFHY/C |
Departure
| Time | 2026-05-09 04:12 |
|---|---|
| Airport | Darwin International Airport / RAAF Darwin (YPDN) |
Arrival
| Time | 2026-05-09 04:55 |
|---|---|
| Airport | Tindal Airport (YPTN) |
| Time | Latitude | Longitude | Altitude | Speed | Heading |
|---|---|---|---|---|---|
| 2026-05-09 03:55 | -12.40924 | 130.87870 | 93 ft | 0 kts | 18° |
| 2026-05-09 04:04 | -12.40925 | 130.87870 | 90 ft | 0 kts | 18° |
| 2026-05-09 04:05 | -12.40926 | 130.87869 | 90 ft | 2 kts | 18° |
| 2026-05-09 04:05 | -12.40951 | 130.87863 | 91 ft | 4 kts | 6° |
| 2026-05-09 04:06 | -12.40977 | 130.87864 | 91 ft | 4 kts | 333° |
| 2026-05-09 04:06 | -12.40990 | 130.87877 | 92 ft | 1 kts | 286° |
| 2026-05-09 04:06 | -12.40991 | 130.87881 | 92 ft | 0 kts | 286° |
| 2026-05-09 04:09 | -12.40983 | 130.87852 | 94 ft | 13 kts | 287° |
| 2026-05-09 04:10 | -12.40954 | 130.87709 | 94 ft | 25 kts | 274° |
| 2026-05-09 04:10 | -12.41015 | 130.87618 | 94 ft | 10 kts | 226° |
| 2026-05-09 04:10 | -12.41051 | 130.87588 | 94 ft | 7 kts | 205° |
| 2026-05-09 04:10 | -12.41104 | 130.87565 | 96 ft | 11 kts | 199° |
| 2026-05-09 04:11 | -12.41232 | 130.87526 | 98 ft | 25 kts | 181° |
| 2026-05-09 04:11 | -12.41321 | 130.87669 | 97 ft | 49 kts | 110° |
| 2026-05-09 04:11 | -12.41512 | 130.88247 | 91 ft | 114 kts | 108° |
| 2026-05-09 04:11 | -12.41794 | 130.89079 | 171 ft | 127 kts | 111° |
| 2026-05-09 04:12 | -12.42128 | 130.89894 | 385 ft | 134 kts | 114° |
| 2026-05-09 04:12 | -12.42581 | 130.90781 | 426 ft | 145 kts | 120° |
| 2026-05-09 04:12 | -12.43046 | 130.91722 | 519 ft | 147 kts | 112° |
| 2026-05-09 04:12 | -12.43389 | 130.92669 | 967 ft | 140 kts | 109° |
| 2026-05-09 04:13 | -12.43689 | 130.93598 | 1463 ft | 139 kts | 108° |
| 2026-05-09 04:13 | -12.44224 | 130.94396 | 1968 ft | 140 kts | 155° |
| 2026-05-09 04:13 | -12.45197 | 130.94395 | 2480 ft | 141 kts | 179° |
| 2026-05-09 04:13 | -12.46139 | 130.94562 | 3007 ft | 137 kts | 156° |
| 2026-05-09 04:14 | -12.47024 | 130.94927 | 3498 ft | 137 kts | 149° |
| 2026-05-09 04:14 | -12.47853 | 130.95389 | 4007 ft | 136 kts | 142° |
| 2026-05-09 04:14 | -12.48650 | 130.95919 | 4522 ft | 140 kts | 142° |
| 2026-05-09 04:14 | -12.49492 | 130.96458 | 4974 ft | 146 kts | 143° |
| 2026-05-09 04:15 | -12.50369 | 130.97001 | 5460 ft | 148 kts | 143° |
| 2026-05-09 04:15 | -12.51247 | 130.97554 | 5950 ft | 149 kts | 143° |
| 2026-05-09 04:15 | -12.52134 | 130.98113 | 6435 ft | 151 kts | 143° |
| 2026-05-09 04:15 | -12.53035 | 130.98669 | 6950 ft | 152 kts | 144° |
| 2026-05-09 04:16 | -12.53946 | 130.99237 | 7412 ft | 155 kts | 143° |
| 2026-05-09 04:16 | -12.54870 | 130.99813 | 7915 ft | 157 kts | 143° |
| 2026-05-09 04:16 | -12.55811 | 131.00401 | 8386 ft | 160 kts | 143° |
| 2026-05-09 04:16 | -12.56764 | 131.00995 | 8862 ft | 162 kts | 143° |
| 2026-05-09 04:17 | -12.57733 | 131.01597 | 9344 ft | 164 kts | 143° |
| 2026-05-09 04:17 | -12.58711 | 131.02214 | 9818 ft | 167 kts | 144° |
| 2026-05-09 04:17 | -12.59710 | 131.02837 | 10276 ft | 169 kts | 145° |
| 2026-05-09 04:17 | -12.60728 | 131.03465 | 10733 ft | 172 kts | 146° |
| 2026-05-09 04:18 | -12.61759 | 131.04106 | 11198 ft | 175 kts | 147° |
| 2026-05-09 04:18 | -12.62805 | 131.04763 | 11661 ft | 178 kts | 145° |
| 2026-05-09 04:18 | -12.63824 | 131.05492 | 12129 ft | 180 kts | 144° |
| 2026-05-09 04:18 | -12.64861 | 131.06223 | 12573 ft | 182 kts | 146° |
| 2026-05-09 04:19 | -12.65920 | 131.06947 | 12984 ft | 184 kts | 147° |
| 2026-05-09 04:19 | -12.66992 | 131.07686 | 13348 ft | 187 kts | 146° |
| 2026-05-09 04:19 | -12.68071 | 131.08439 | 13715 ft | 188 kts | 147° |
| 2026-05-09 04:19 | -12.69159 | 131.09194 | 14079 ft | 190 kts | 147° |
| 2026-05-09 04:20 | -12.70256 | 131.09954 | 14435 ft | 191 kts | 148° |
| 2026-05-09 04:20 | -12.71364 | 131.10723 | 14758 ft | 194 kts | 148° |
| 2026-05-09 04:20 | -12.72483 | 131.11497 | 15093 ft | 195 kts | 148° |
| 2026-05-09 04:20 | -12.73607 | 131.12278 | 15412 ft | 196 kts | 148° |
| 2026-05-09 04:21 | -12.74743 | 131.13068 | 15729 ft | 198 kts | 149° |
| 2026-05-09 04:21 | -12.75888 | 131.13861 | 16030 ft | 200 kts | 149° |
| 2026-05-09 04:21 | -12.78206 | 131.15469 | 16623 ft | 202 kts | 149° |
| 2026-05-09 04:22 | -12.79373 | 131.16280 | 16915 ft | 204 kts | 150° |
| 2026-05-09 04:22 | -12.80549 | 131.17099 | 17191 ft | 205 kts | 150° |
| 2026-05-09 04:22 | -12.81733 | 131.17918 | 17463 ft | 206 kts | 150° |
| 2026-05-09 04:22 | -12.82923 | 131.18743 | 17741 ft | 207 kts | 150° |
| 2026-05-09 04:23 | -12.84119 | 131.19576 | 17997 ft | 208 kts | 150° |
| 2026-05-09 04:23 | -12.85325 | 131.20412 | 18240 ft | 210 kts | 151° |
| 2026-05-09 04:23 | -12.86538 | 131.21255 | 18486 ft | 212 kts | 151° |
| 2026-05-09 04:23 | -12.87763 | 131.22105 | 18714 ft | 214 kts | 151° |
| 2026-05-09 04:24 | -12.89025 | 131.22979 | 18838 ft | 224 kts | 151° |
| 2026-05-09 04:24 | -12.90354 | 131.23903 | 18898 ft | 238 kts | 150° |
| 2026-05-09 04:24 | -12.91771 | 131.24892 | 18927 ft | 254 kts | 150° |
| 2026-05-09 04:24 | -12.93256 | 131.25922 | 18937 ft | 266 kts | 150° |
| 2026-05-09 04:25 | -12.94811 | 131.27005 | 18938 ft | 274 kts | 150° |
| 2026-05-09 04:25 | -12.96403 | 131.28113 | 18936 ft | 278 kts | 149° |
| 2026-05-09 04:25 | -12.98014 | 131.29231 | 18935 ft | 280 kts | 149° |
| 2026-05-09 04:25 | -12.99626 | 131.30354 | 18935 ft | 280 kts | 149° |
| 2026-05-09 04:26 | -13.01240 | 131.31476 | 18937 ft | 280 kts | 149° |
| 2026-05-09 04:26 | -13.02852 | 131.32598 | 18941 ft | 280 kts | 149° |
| 2026-05-09 04:26 | -13.04467 | 131.33721 | 18944 ft | 280 kts | 149° |
| 2026-05-09 04:26 | -13.06080 | 131.34843 | 18949 ft | 280 kts | 149° |
| 2026-05-09 04:27 | -13.07694 | 131.35967 | 18952 ft | 281 kts | 150° |
| 2026-05-09 04:27 | -13.09311 | 131.37093 | 18953 ft | 281 kts | 150° |
| 2026-05-09 04:27 | -13.10932 | 131.38219 | 18954 ft | 281 kts | 149° |
| 2026-05-09 04:27 | -13.12549 | 131.39348 | 18955 ft | 281 kts | 149° |
| 2026-05-09 04:28 | -13.14168 | 131.40473 | 18951 ft | 281 kts | 149° |
| 2026-05-09 04:28 | -13.15788 | 131.41602 | 18955 ft | 281 kts | 149° |
| 2026-05-09 04:28 | -13.17408 | 131.42730 | 18952 ft | 281 kts | 149° |
| 2026-05-09 04:28 | -13.19026 | 131.43858 | 18953 ft | 281 kts | 149° |
| 2026-05-09 04:29 | -13.20648 | 131.44989 | 18951 ft | 282 kts | 149° |
| 2026-05-09 04:29 | -13.22274 | 131.46120 | 18956 ft | 283 kts | 149° |
| 2026-05-09 04:29 | -13.23911 | 131.47233 | 18954 ft | 282 kts | 151° |
| 2026-05-09 04:29 | -13.25550 | 131.48339 | 18957 ft | 282 kts | 150° |
| 2026-05-09 04:30 | -13.27186 | 131.49460 | 18958 ft | 282 kts | 150° |
| 2026-05-09 04:30 | -13.28832 | 131.50579 | 18791 ft | 287 kts | 150° |
| 2026-05-09 04:30 | -13.30501 | 131.51714 | 18542 ft | 288 kts | 150° |
| 2026-05-09 04:30 | -13.32170 | 131.52854 | 18300 ft | 289 kts | 150° |
| 2026-05-09 04:31 | -13.33847 | 131.53995 | 18047 ft | 289 kts | 150° |
| 2026-05-09 04:31 | -13.35520 | 131.55136 | 17794 ft | 288 kts | 150° |
| 2026-05-09 04:31 | -13.37190 | 131.56273 | 17542 ft | 288 kts | 150° |
| 2026-05-09 04:31 | -13.38860 | 131.57410 | 17287 ft | 287 kts | 150° |
| 2026-05-09 04:32 | -13.40524 | 131.58547 | 17042 ft | 287 kts | 149° |
| 2026-05-09 04:32 | -13.42185 | 131.59680 | 16793 ft | 287 kts | 149° |
| 2026-05-09 04:32 | -13.43846 | 131.60811 | 16543 ft | 286 kts | 149° |
| 2026-05-09 04:32 | -13.45502 | 131.61941 | 16292 ft | 286 kts | 149° |
| 2026-05-09 04:33 | -13.47155 | 131.63069 | 16042 ft | 285 kts | 149° |
| 2026-05-09 04:33 | -13.48802 | 131.64194 | 15788 ft | 284 kts | 149° |
| 2026-05-09 04:33 | -13.50449 | 131.65317 | 15540 ft | 284 kts | 148° |
| 2026-05-09 04:33 | -13.52093 | 131.66439 | 15289 ft | 284 kts | 148° |
| 2026-05-09 04:34 | -13.53735 | 131.67560 | 15041 ft | 283 kts | 148° |
| 2026-05-09 04:34 | -13.55376 | 131.68680 | 14787 ft | 283 kts | 148° |
| 2026-05-09 04:34 | -13.57014 | 131.69798 | 14536 ft | 282 kts | 148° |
| 2026-05-09 04:34 | -13.58644 | 131.70913 | 14283 ft | 281 kts | 148° |
| 2026-05-09 04:35 | -13.60265 | 131.72021 | 14033 ft | 279 kts | 148° |
| 2026-05-09 04:35 | -13.61883 | 131.73123 | 13783 ft | 279 kts | 147° |
| 2026-05-09 04:35 | -13.63494 | 131.74228 | 13537 ft | 277 kts | 147° |
| 2026-05-09 04:35 | -13.65079 | 131.75309 | 13280 ft | 272 kts | 147° |
| 2026-05-09 04:36 | -13.66629 | 131.76369 | 13031 ft | 270 kts | 147° |
| 2026-05-09 04:36 | -13.68210 | 131.77450 | 12809 ft | 269 kts | 147° |
| 2026-05-09 04:36 | -13.69748 | 131.78501 | 12590 ft | 269 kts | 147° |
| 2026-05-09 04:36 | -13.71310 | 131.79569 | 12371 ft | 270 kts | 147° |
| 2026-05-09 04:37 | -13.72879 | 131.80643 | 12145 ft | 271 kts | 146° |
| 2026-05-09 04:37 | -13.74454 | 131.81721 | 11918 ft | 272 kts | 146° |
| 2026-05-09 04:37 | -13.76027 | 131.82797 | 11691 ft | 271 kts | 146° |
| 2026-05-09 04:37 | -13.77594 | 131.83868 | 11464 ft | 270 kts | 146° |
| 2026-05-09 04:38 | -13.79153 | 131.84936 | 11239 ft | 268 kts | 146° |
| 2026-05-09 04:38 | -13.80704 | 131.85998 | 11015 ft | 267 kts | 145° |
| 2026-05-09 04:38 | -13.82245 | 131.87053 | 10786 ft | 265 kts | 145° |
| 2026-05-09 04:38 | -13.83773 | 131.88100 | 10562 ft | 263 kts | 145° |
| 2026-05-09 04:39 | -13.85292 | 131.89139 | 10336 ft | 261 kts | 144° |
| 2026-05-09 04:39 | -13.86798 | 131.90172 | 10109 ft | 259 kts | 144° |
| 2026-05-09 04:39 | -13.88296 | 131.91198 | 9885 ft | 258 kts | 144° |
| 2026-05-09 04:39 | -13.89784 | 131.92217 | 9661 ft | 257 kts | 144° |
| 2026-05-09 04:40 | -13.91262 | 131.93232 | 9435 ft | 254 kts | 143° |
| 2026-05-09 04:40 | -13.92729 | 131.94236 | 9208 ft | 252 kts | 143° |
| 2026-05-09 04:40 | -13.94185 | 131.95234 | 8981 ft | 250 kts | 143° |
| 2026-05-09 04:40 | -13.95628 | 131.96222 | 8763 ft | 249 kts | 143° |
| 2026-05-09 04:41 | -13.97059 | 131.97208 | 8532 ft | 246 kts | 142° |
| 2026-05-09 04:41 | -13.98480 | 131.98181 | 8302 ft | 244 kts | 143° |
| 2026-05-09 04:41 | -13.99891 | 131.99148 | 8079 ft | 242 kts | 143° |
| 2026-05-09 04:41 | -14.01279 | 132.00103 | 7853 ft | 239 kts | 143° |
| 2026-05-09 04:42 | -14.02659 | 132.01048 | 7630 ft | 237 kts | 143° |
| 2026-05-09 04:42 | -14.04028 | 132.01984 | 7401 ft | 235 kts | 142° |
| 2026-05-09 04:42 | -14.05380 | 132.02916 | 7179 ft | 233 kts | 143° |
| 2026-05-09 04:42 | -14.06705 | 132.03825 | 6961 ft | 231 kts | 143° |
| 2026-05-09 04:43 | -14.08037 | 132.04738 | 6729 ft | 229 kts | 143° |
| 2026-05-09 04:43 | -14.09356 | 132.05644 | 6506 ft | 227 kts | 143° |
| 2026-05-09 04:43 | -14.10659 | 132.06539 | 6281 ft | 224 kts | 143° |
| 2026-05-09 04:43 | -14.11959 | 132.07429 | 6055 ft | 223 kts | 143° |
| 2026-05-09 04:44 | -14.13243 | 132.08314 | 5830 ft | 221 kts | 143° |
| 2026-05-09 04:44 | -14.14510 | 132.09187 | 5601 ft | 217 kts | 143° |
| 2026-05-09 04:44 | -14.15758 | 132.10044 | 5375 ft | 214 kts | 143° |
| 2026-05-09 04:44 | -14.16987 | 132.10885 | 5152 ft | 210 kts | 143° |
| 2026-05-09 04:45 | -14.18187 | 132.11710 | 4922 ft | 205 kts | 143° |
| 2026-05-09 04:45 | -14.19353 | 132.12512 | 4688 ft | 199 kts | 143° |
| 2026-05-09 04:45 | -14.20489 | 132.13294 | 4465 ft | 194 kts | 143° |
| 2026-05-09 04:45 | -14.21599 | 132.14058 | 4237 ft | 189 kts | 143° |
| 2026-05-09 04:46 | -14.22682 | 132.14800 | 4014 ft | 185 kts | 143° |
| 2026-05-09 04:46 | -14.23744 | 132.15533 | 3786 ft | 183 kts | 143° |
| 2026-05-09 04:46 | -14.24799 | 132.16258 | 3565 ft | 182 kts | 143° |
| 2026-05-09 04:46 | -14.25494 | 132.16737 | 3421 ft | 181 kts | 143° |
| 2026-05-09 04:47 | -14.26540 | 132.17462 | 3199 ft | 181 kts | 143° |
| 2026-05-09 04:47 | -14.27585 | 132.18173 | 2968 ft | 178 kts | 143° |
| 2026-05-09 04:47 | -14.28615 | 132.18881 | 2748 ft | 179 kts | 143° |
| 2026-05-09 04:47 | -14.29647 | 132.19601 | 2537 ft | 179 kts | 143° |
| 2026-05-09 04:48 | -14.30687 | 132.20314 | 2308 ft | 179 kts | 144° |
| 2026-05-09 04:48 | -14.31726 | 132.21025 | 2083 ft | 179 kts | 144° |
| 2026-05-09 04:48 | -14.32761 | 132.21739 | 1849 ft | 178 kts | 145° |
| 2026-05-09 04:48 | -14.33792 | 132.22450 | 1621 ft | 179 kts | 144° |
| 2026-05-09 04:49 | -14.34820 | 132.23170 | 1441 ft | 177 kts | 145° |
| 2026-05-09 04:49 | -14.35776 | 132.23836 | 1855 ft | 161 kts | 144° |
| 2026-05-09 04:49 | -14.36712 | 132.24500 | 2077 ft | 166 kts | 144° |
| 2026-05-09 04:49 | -14.37681 | 132.25193 | 2182 ft | 172 kts | 143° |
| 2026-05-09 04:50 | -14.38678 | 132.25910 | 2227 ft | 177 kts | 143° |
| 2026-05-09 04:50 | -14.39686 | 132.26645 | 2244 ft | 178 kts | 142° |
| 2026-05-09 04:50 | -14.40686 | 132.27406 | 2250 ft | 179 kts | 140° |
| 2026-05-09 04:50 | -14.41562 | 132.28164 | 2239 ft | 154 kts | 136° |
| 2026-05-09 04:51 | -14.42362 | 132.28912 | 2250 ft | 157 kts | 136° |
| 2026-05-09 04:51 | -14.43170 | 132.29668 | 2265 ft | 158 kts | 137° |
| 2026-05-09 04:51 | -14.44004 | 132.30417 | 2234 ft | 160 kts | 137° |
| 2026-05-09 04:51 | -14.44719 | 132.31044 | 1817 ft | 114 kts | 137° |
| 2026-05-09 04:52 | -14.45366 | 132.31629 | 1204 ft | 130 kts | 138° |
| 2026-05-09 04:52 | -14.46023 | 132.32225 | 1173 ft | 126 kts | 139° |
| 2026-05-09 04:52 | -14.46690 | 132.32816 | 1179 ft | 125 kts | 139° |
| 2026-05-09 04:52 | -14.47312 | 132.33372 | 1069 ft | 115 kts | 138° |
| 2026-05-09 04:53 | -14.47885 | 132.33897 | 915 ft | 102 kts | 138° |
| 2026-05-09 04:53 | -14.48436 | 132.34380 | 783 ft | 107 kts | 140° |
| 2026-05-09 04:53 | -14.49013 | 132.34874 | 719 ft | 107 kts | 139° |
| 2026-05-09 04:53 | -14.49586 | 132.35377 | 647 ft | 107 kts | 137° |
| 2026-05-09 04:54 | -14.50123 | 132.35880 | 576 ft | 102 kts | 138° |
| 2026-05-09 04:54 | -14.50651 | 132.36358 | 497 ft | 101 kts | 137° |
| 2026-05-09 04:54 | -14.51172 | 132.36835 | 424 ft | 100 kts | 137° |
| 2026-05-09 04:54 | -14.51664 | 132.37275 | 426 ft | 73 kts | 137° |
| 2026-05-09 04:55 | -14.51942 | 132.37526 | 421 ft | 37 kts | 139° |
| 2026-05-09 04:55 | -14.52088 | 132.37664 | 426 ft | 28 kts | 137° |
| 2026-05-09 04:55 | -14.52247 | 132.37805 | 421 ft | 37 kts | 140° |
| 2026-05-09 04:55 | -14.52431 | 132.37992 | 427 ft | 21 kts | 100° |
| 2026-05-09 04:56 | -14.52394 | 132.38083 | 434 ft | 10 kts | 45° |
| 2026-05-09 04:56 | -14.52294 | 132.38058 | 424 ft | 23 kts | 316° |
| 2026-05-09 04:56 | -14.52202 | 132.37973 | 426 ft | 13 kts | 317° |
| 2026-05-09 04:56 | -14.52124 | 132.37903 | 432 ft | 23 kts | 319° |
| 2026-05-09 04:57 | -14.51953 | 132.37753 | 426 ft | 41 kts | 317° |
| 2026-05-09 04:57 | -14.51730 | 132.37553 | 420 ft | 37 kts | 316° |
| 2026-05-09 04:57 | -14.51579 | 132.37412 | 423 ft | 25 kts | 321° |
| 2026-05-09 04:57 | -14.51429 | 132.37286 | 427 ft | 30 kts | 320° |
| 2026-05-09 04:58 | -14.51256 | 132.37135 | 416 ft | 34 kts | 320° |
| 2026-05-09 04:58 | -14.51163 | 132.36973 | 416 ft | 21 kts | 233° |
| 2026-05-09 04:58 | -14.51257 | 132.36858 | 419 ft | 25 kts | 230° |
| 2026-05-09 04:58 | -14.51354 | 132.36693 | 421 ft | 26 kts | 285° |
| 2026-05-09 04:59 | -14.51303 | 132.36595 | 424 ft | 0 kts | 327° |